Terminal Aerodrome Forecast
Issued by NWS

Home | Current Version | Previous Version | Text Only | Print | Product List | Glossary On
Versions: 1 2 3 4 5 6 7 8 9 10 11 12 13 14 15 16 17 18 19 20 21
000
FTUS43 KILX 031900 AAA
TAFDEC
TAF AMD
KDEC 031900Z 0319/0418 15007KT P6SM SCT035 BKN250
      TEMPO 0319/0323 BKN035
     FM040000 13005KT P6SM SCT250
      TEMPO 0409/0413 3SM BR=

USA.gov is the U.S. government's official web portal to all federal, state and local government web resources and services.